sensor_id;sensor_type;location;lat;lon;timestamp;temperature;humidity
16881;DHT22;8557;52.068;5.198;2023-03-03T00:00:39;2.60;99.90
16881;DHT22;8557;52.068;5.198;2023-03-03T00:03:08;2.50;99.90
16881;DHT22;8557;52.068;5.198;2023-03-03T00:05:36;2.50;99.90
16881;DHT22;8557;52.068;5.198;2023-03-03T00:08:03;2.50;99.90
16881;DHT22;8557;52.068;5.198;2023-03-03T00:10:31;2.40;99.90
16881;DHT22;8557;52.068;5.198;2023-03-03T00:12:58;2.40;99.90
16881;DHT22;8557;52.068;5.198;2023-03-03T00:15:26;2.50;99.90
16881;DHT22;8557;52.068;5.198;2023-03-03T00:17:53;2.40;99.90
16881;DHT22;8557;52.068;5.198;2023-03-03T00:20:32;2.40;99.90
16881;DHT22;8557;52.068;5.198;2023-03-03T00:23:12;2.40;99.90
16881;DHT22;8557;52.068;5.198;2023-03-03T00:25:44;2.40;99.90
16881;DHT22;8557;52.068;5.198;2023-03-03T00:28:22;2.30;99.90
16881;DHT22;8557;52.068;5.198;2023-03-03T00:30:50;2.30;99.90
16881;DHT22;8557;52.068;5.198;2023-03-03T00:33:24;2.40;99.90
16881;DHT22;8557;52.068;5.198;2023-03-03T00:35:54;2.30;99.90
16881;DHT22;8557;52.068;5.198;2023-03-03T00:38:21;2.40;99.90
16881;DHT22;8557;52.068;5.198;2023-03-03T00:40:49;2.40;99.90
16881;DHT22;8557;52.068;5.198;2023-03-03T00:43:18;2.30;99.90
16881;DHT22;8557;52.068;5.198;2023-03-03T00:45:46;2.20;99.90
16881;DHT22;8557;52.068;5.198;2023-03-03T00:48:23;2.20;99.90
16881;DHT22;8557;52.068;5.198;2023-03-03T00:50:56;2.10;99.90
16881;DHT22;8557;52.068;5.198;2023-03-03T00:53:24;2.00;99.90
16881;DHT22;8557;52.068;5.198;2023-03-03T00:55:53;2.00;99.90
16881;DHT22;8557;52.068;5.198;2023-03-03T00:58:20;2.00;99.90
16881;DHT22;8557;52.068;5.198;2023-03-03T01:00:48;2.10;99.90
16881;DHT22;8557;52.068;5.198;2023-03-03T01:03:17;2.10;99.90
16881;DHT22;8557;52.068;5.198;2023-03-03T01:05:45;2.10;99.90
16881;DHT22;8557;52.068;5.198;2023-03-03T01:08:12;2.20;99.90
16881;DHT22;8557;52.068;5.198;2023-03-03T01:10:41;2.20;99.90
16881;DHT22;8557;52.068;5.198;2023-03-03T01:13:11;2.40;99.90
16881;DHT22;8557;52.068;5.198;2023-03-03T01:15:38;2.50;99.90
16881;DHT22;8557;52.068;5.198;2023-03-03T01:18:06;2.60;99.90
16881;DHT22;8557;52.068;5.198;2023-03-03T01:20:33;2.60;99.90
16881;DHT22;8557;52.068;5.198;2023-03-03T01:23:00;2.60;99.90
16881;DHT22;8557;52.068;5.198;2023-03-03T01:25:27;2.60;99.90
16881;DHT22;8557;52.068;5.198;2023-03-03T01:27:54;2.60;99.90
16881;DHT22;8557;52.068;5.198;2023-03-03T01:30:23;2.50;99.90
16881;DHT22;8557;52.068;5.198;2023-03-03T01:32:50;2.60;99.90
16881;DHT22;8557;52.068;5.198;2023-03-03T01:35:17;2.50;99.90
16881;DHT22;8557;52.068;5.198;2023-03-03T01:37:44;2.60;99.90
16881;DHT22;8557;52.068;5.198;2023-03-03T01:40:13;2.60;99.90
16881;DHT22;8557;52.068;5.198;2023-03-03T01:42:40;2.60;99.90
16881;DHT22;8557;52.068;5.198;2023-03-03T01:45:17;2.60;99.90
16881;DHT22;8557;52.068;5.198;2023-03-03T01:47:50;2.60;99.90
16881;DHT22;8557;52.068;5.198;2023-03-03T01:50:38;2.50;99.90
16881;DHT22;8557;52.068;5.198;2023-03-03T01:53:11;2.50;99.90
16881;DHT22;8557;52.068;5.198;2023-03-03T01:55:40;2.50;99.90
16881;DHT22;8557;52.068;5.198;2023-03-03T01:58:10;2.50;99.90
16881;DHT22;8557;52.068;5.198;2023-03-03T02:00:40;2.50;99.90
16881;DHT22;8557;52.068;5.198;2023-03-03T02:03:09;2.50;99.90
16881;DHT22;8557;52.068;5.198;2023-03-03T02:05:36;2.50;99.90
16881;DHT22;8557;52.068;5.198;2023-03-03T02:08:04;2.40;99.90
16881;DHT22;8557;52.068;5.198;2023-03-03T02:10:32;2.40;99.90
16881;DHT22;8557;52.068;5.198;2023-03-03T02:12:59;2.50;99.90
16881;DHT22;8557;52.068;5.198;2023-03-03T02:15:28;2.40;99.90
16881;DHT22;8557;52.068;5.198;2023-03-03T02:17:59;2.40;99.90
16881;DHT22;8557;52.068;5.198;2023-03-03T02:20:40;2.40;99.90
16881;DHT22;8557;52.068;5.198;2023-03-03T02:23:14;2.40;99.90
16881;DHT22;8557;52.068;5.198;2023-03-03T02:25:47;2.40;99.90
16881;DHT22;8557;52.068;5.198;2023-03-03T02:28:18;2.40;99.90
16881;DHT22;8557;52.068;5.198;2023-03-03T02:30:45;2.40;99.90
16881;DHT22;8557;52.068;5.198;2023-03-03T02:33:12;2.40;99.90
16881;DHT22;8557;52.068;5.198;2023-03-03T02:35:40;2.40;99.90
16881;DHT22;8557;52.068;5.198;2023-03-03T02:38:14;2.40;99.90
16881;DHT22;8557;52.068;5.198;2023-03-03T02:40:54;2.40;99.90
16881;DHT22;8557;52.068;5.198;2023-03-03T02:43:26;2.50;99.90
16881;DHT22;8557;52.068;5.198;2023-03-03T02:45:54;2.50;99.90
16881;DHT22;8557;52.068;5.198;2023-03-03T02:48:21;2.50;99.90
16881;DHT22;8557;52.068;5.198;2023-03-03T02:50:48;2.50;99.90
16881;DHT22;8557;52.068;5.198;2023-03-03T02:53:15;2.50;99.90
16881;DHT22;8557;52.068;5.198;2023-03-03T02:55:41;2.60;99.90
16881;DHT22;8557;52.068;5.198;2023-03-03T02:58:08;2.60;99.90
16881;DHT22;8557;52.068;5.198;2023-03-03T03:00:36;2.70;99.90
16881;DHT22;8557;52.068;5.198;2023-03-03T03:03:03;2.80;99.90
16881;DHT22;8557;52.068;5.198;2023-03-03T03:05:30;2.80;99.90
16881;DHT22;8557;52.068;5.198;2023-03-03T03:07:57;2.70;99.90
16881;DHT22;8557;52.068;5.198;2023-03-03T03:10:24;2.70;99.90
16881;DHT22;8557;52.068;5.198;2023-03-03T03:12:51;2.70;99.90
16881;DHT22;8557;52.068;5.198;2023-03-03T03:15:18;2.60;99.90
16881;DHT22;8557;52.068;5.198;2023-03-03T03:17:46;2.60;99.90
16881;DHT22;8557;52.068;5.198;2023-03-03T03:20:12;2.60;99.90
16881;DHT22;8557;52.068;5.198;2023-03-03T03:22:39;2.60;99.90
16881;DHT22;8557;52.068;5.198;2023-03-03T03:25:07;2.60;99.90
16881;DHT22;8557;52.068;5.198;2023-03-03T03:27:34;2.50;99.90
16881;DHT22;8557;52.068;5.198;2023-03-03T03:30:01;2.50;99.90
16881;DHT22;8557;52.068;5.198;2023-03-03T03:32:27;2.40;99.90
16881;DHT22;8557;52.068;5.198;2023-03-03T03:34:55;2.50;99.90
16881;DHT22;8557;52.068;5.198;2023-03-03T03:37:22;2.40;99.90
16881;DHT22;8557;52.068;5.198;2023-03-03T03:39:49;2.30;99.90
16881;DHT22;8557;52.068;5.198;2023-03-03T03:42:16;2.40;99.90
16881;DHT22;8557;52.068;5.198;2023-03-03T03:44:43;2.40;99.90
16881;DHT22;8557;52.068;5.198;2023-03-03T03:47:10;2.30;99.90
16881;DHT22;8557;52.068;5.198;2023-03-03T03:49:37;2.30;99.90
16881;DHT22;8557;52.068;5.198;2023-03-03T03:52:05;2.30;99.90
16881;DHT22;8557;52.068;5.198;2023-03-03T03:54:32;2.20;99.90
16881;DHT22;8557;52.068;5.198;2023-03-03T03:56:58;2.40;99.90
16881;DHT22;8557;52.068;5.198;2023-03-03T03:59:25;2.40;99.90
16881;DHT22;8557;52.068;5.198;2023-03-03T04:01:52;2.40;99.90
16881;DHT22;8557;52.068;5.198;2023-03-03T04:04:19;2.40;99.90
16881;DHT22;8557;52.068;5.198;2023-03-03T04:06:46;2.50;99.90
16881;DHT22;8557;52.068;5.198;2023-03-03T04:09:15;2.50;99.90
16881;DHT22;8557;52.068;5.198;2023-03-03T04:11:42;2.50;99.90
16881;DHT22;8557;52.068;5.198;2023-03-03T04:14:08;2.50;99.90
16881;DHT22;8557;52.068;5.198;2023-03-03T04:16:35;2.50;99.90
16881;DHT22;8557;52.068;5.198;2023-03-03T04:19:02;2.40;99.90
16881;DHT22;8557;52.068;5.198;2023-03-03T04:21:29;2.40;99.90
16881;DHT22;8557;52.068;5.198;2023-03-03T04:23:56;2.40;99.90
16881;DHT22;8557;52.068;5.198;2023-03-03T04:26:24;2.30;99.90
16881;DHT22;8557;52.068;5.198;2023-03-03T04:28:51;2.40;99.90
16881;DHT22;8557;52.068;5.198;2023-03-03T04:31:18;2.50;99.90
16881;DHT22;8557;52.068;5.198;2023-03-03T04:33:45;2.50;99.90
16881;DHT22;8557;52.068;5.198;2023-03-03T04:36:12;2.40;99.90
16881;DHT22;8557;52.068;5.198;2023-03-03T04:38:39;2.50;99.90
16881;DHT22;8557;52.068;5.198;2023-03-03T04:41:05;2.50;99.90
16881;DHT22;8557;52.068;5.198;2023-03-03T04:43:34;2.50;99.90
16881;DHT22;8557;52.068;5.198;2023-03-03T04:46:00;2.60;99.90
16881;DHT22;8557;52.068;5.198;2023-03-03T04:48:27;2.60;99.90
16881;DHT22;8557;52.068;5.198;2023-03-03T04:50:54;2.60;99.90
16881;DHT22;8557;52.068;5.198;2023-03-03T04:53:21;2.60;99.90
16881;DHT22;8557;52.068;5.198;2023-03-03T04:55:49;2.60;99.90
16881;DHT22;8557;52.068;5.198;2023-03-03T04:58:16;2.70;99.90
16881;DHT22;8557;52.068;5.198;2023-03-03T05:00:45;2.70;99.90
16881;DHT22;8557;52.068;5.198;2023-03-03T05:03:12;2.60;99.90
16881;DHT22;8557;52.068;5.198;2023-03-03T05:05:39;2.60;99.90
16881;DHT22;8557;52.068;5.198;2023-03-03T05:08:06;2.70;99.90
16881;DHT22;8557;52.068;5.198;2023-03-03T05:10:33;2.70;99.90
16881;DHT22;8557;52.068;5.198;2023-03-03T05:13:00;2.70;99.90
16881;DHT22;8557;52.068;5.198;2023-03-03T05:15:27;2.60;99.90
16881;DHT22;8557;52.068;5.198;2023-03-03T05:17:55;2.50;99.90
16881;DHT22;8557;52.068;5.198;2023-03-03T05:20:22;2.60;99.90
16881;DHT22;8557;52.068;5.198;2023-03-03T05:22:49;2.70;99.90
16881;DHT22;8557;52.068;5.198;2023-03-03T05:25:15;2.70;99.90
16881;DHT22;8557;52.068;5.198;2023-03-03T05:27:42;2.70;99.90
16881;DHT22;8557;52.068;5.198;2023-03-03T05:30:11;2.80;99.90
16881;DHT22;8557;52.068;5.198;2023-03-03T05:32:38;2.90;99.90
16881;DHT22;8557;52.068;5.198;2023-03-03T05:35:06;2.90;99.90
16881;DHT22;8557;52.068;5.198;2023-03-03T05:37:33;2.80;99.90
16881;DHT22;8557;52.068;5.198;2023-03-03T05:40:00;2.80;99.90
16881;DHT22;8557;52.068;5.198;2023-03-03T05:42:27;2.80;99.90
16881;DHT22;8557;52.068;5.198;2023-03-03T05:44:53;2.80;99.90
16881;DHT22;8557;52.068;5.198;2023-03-03T05:47:20;2.90;99.90
16881;DHT22;8557;52.068;5.198;2023-03-03T05:49:47;2.90;99.90
16881;DHT22;8557;52.068;5.198;2023-03-03T05:52:15;2.90;99.90
16881;DHT22;8557;52.068;5.198;2023-03-03T05:54:42;2.90;99.90
16881;DHT22;8557;52.068;5.198;2023-03-03T05:57:09;3.00;99.90
16881;DHT22;8557;52.068;5.198;2023-03-03T05:59:36;2.90;99.90
16881;DHT22;8557;52.068;5.198;2023-03-03T06:02:03;2.90;99.90
16881;DHT22;8557;52.068;5.198;2023-03-03T06:04:29;3.00;99.90
16881;DHT22;8557;52.068;5.198;2023-03-03T06:06:56;2.90;99.90
16881;DHT22;8557;52.068;5.198;2023-03-03T06:09:24;3.00;99.90
16881;DHT22;8557;52.068;5.198;2023-03-03T06:11:51;3.00;99.90
16881;DHT22;8557;52.068;5.198;2023-03-03T06:14:18;3.00;99.90
16881;DHT22;8557;52.068;5.198;2023-03-03T06:16:45;3.00;99.90
16881;DHT22;8557;52.068;5.198;2023-03-03T06:19:12;3.10;99.90
16881;DHT22;8557;52.068;5.198;2023-03-03T06:21:39;3.20;99.90
16881;DHT22;8557;52.068;5.198;2023-03-03T06:24:06;3.20;99.90
16881;DHT22;8557;52.068;5.198;2023-03-03T06:26:35;3.10;99.90
16881;DHT22;8557;52.068;5.198;2023-03-03T06:29:02;3.20;99.90
16881;DHT22;8557;52.068;5.198;2023-03-03T06:31:28;3.20;99.90
16881;DHT22;8557;52.068;5.198;2023-03-03T06:33:55;3.20;99.90
16881;DHT22;8557;52.068;5.198;2023-03-03T06:36:23;3.10;99.90
16881;DHT22;8557;52.068;5.198;2023-03-03T06:38:51;3.10;99.90
16881;DHT22;8557;52.068;5.198;2023-03-03T06:41:18;3.10;99.90
16881;DHT22;8557;52.068;5.198;2023-03-03T06:43:46;3.10;99.90
16881;DHT22;8557;52.068;5.198;2023-03-03T06:46:13;3.10;99.90
16881;DHT22;8557;52.068;5.198;2023-03-03T06:48:39;3.20;99.90
16881;DHT22;8557;52.068;5.198;2023-03-03T06:51:17;3.20;99.90
16881;DHT22;8557;52.068;5.198;2023-03-03T06:53:47;3.20;99.90
16881;DHT22;8557;52.068;5.198;2023-03-03T06:56:14;3.30;99.90
16881;DHT22;8557;52.068;5.198;2023-03-03T06:58:41;3.40;99.90
16881;DHT22;8557;52.068;5.198;2023-03-03T07:01:14;3.30;99.90
16881;DHT22;8557;52.068;5.198;2023-03-03T07:03:42;3.30;99.90
16881;DHT22;8557;52.068;5.198;2023-03-03T07:06:18;3.30;99.90
16881;DHT22;8557;52.068;5.198;2023-03-03T07:08:46;3.30;99.90
16881;DHT22;8557;52.068;5.198;2023-03-03T07:11:17;3.40;99.90
16881;DHT22;8557;52.068;5.198;2023-03-03T07:13:46;3.50;99.90
16881;DHT22;8557;52.068;5.198;2023-03-03T07:16:16;3.40;99.90
16881;DHT22;8557;52.068;5.198;2023-03-03T07:18:48;3.60;99.90
16881;DHT22;8557;52.068;5.198;2023-03-03T07:21:18;3.50;99.90
16881;DHT22;8557;52.068;5.198;2023-03-03T07:23:46;3.60;99.90
16881;DHT22;8557;52.068;5.198;2023-03-03T07:26:18;3.60;99.90
16881;DHT22;8557;52.068;5.198;2023-03-03T07:28:52;3.50;99.90
16881;DHT22;8557;52.068;5.198;2023-03-03T07:31:27;3.50;99.90
16881;DHT22;8557;52.068;5.198;2023-03-03T07:33:59;3.60;99.90
16881;DHT22;8557;52.068;5.198;2023-03-03T07:36:29;3.70;99.90
16881;DHT22;8557;52.068;5.198;2023-03-03T07:38:58;3.70;99.90
16881;DHT22;8557;52.068;5.198;2023-03-03T07:41:27;3.70;99.90
16881;DHT22;8557;52.068;5.198;2023-03-03T07:43:56;3.80;99.90
16881;DHT22;8557;52.068;5.198;2023-03-03T07:46:28;3.90;99.90
16881;DHT22;8557;52.068;5.198;2023-03-03T07:48:57;4.00;99.90
16881;DHT22;8557;52.068;5.198;2023-03-03T07:51:26;3.90;99.90
16881;DHT22;8557;52.068;5.198;2023-03-03T07:53:55;3.90;99.90
16881;DHT22;8557;52.068;5.198;2023-03-03T07:56:29;4.00;99.90
16881;DHT22;8557;52.068;5.198;2023-03-03T07:58:59;4.00;99.90
16881;DHT22;8557;52.068;5.198;2023-03-03T08:01:37;4.00;99.90
16881;DHT22;8557;52.068;5.198;2023-03-03T08:04:15;4.00;99.90
16881;DHT22;8557;52.068;5.198;2023-03-03T08:06:46;4.10;99.90
16881;DHT22;8557;52.068;5.198;2023-03-03T08:09:35;4.10;99.90
16881;DHT22;8557;52.068;5.198;2023-03-03T08:15:20;4.20;99.90
16881;DHT22;8557;52.068;5.198;2023-03-03T08:17:50;4.30;99.90
16881;DHT22;8557;52.068;5.198;2023-03-03T08:23:23;4.40;99.90
16881;DHT22;8557;52.068;5.198;2023-03-03T08:25:51;4.50;99.90
16881;DHT22;8557;52.068;5.198;2023-03-03T08:28:19;4.60;99.90
16881;DHT22;8557;52.068;5.198;2023-03-03T08:30:46;4.60;99.90
16881;DHT22;8557;52.068;5.198;2023-03-03T08:33:15;4.70;99.90
16881;DHT22;8557;52.068;5.198;2023-03-03T08:35:42;4.80;99.90
16881;DHT22;8557;52.068;5.198;2023-03-03T08:38:10;4.80;99.90
16881;DHT22;8557;52.068;5.198;2023-03-03T08:40:37;4.80;99.90
16881;DHT22;8557;52.068;5.198;2023-03-03T08:43:05;4.70;99.90
16881;DHT22;8557;52.068;5.198;2023-03-03T08:45:32;4.80;99.90
16881;DHT22;8557;52.068;5.198;2023-03-03T08:47:58;4.90;99.90
16881;DHT22;8557;52.068;5.198;2023-03-03T08:50:28;5.00;99.90
16881;DHT22;8557;52.068;5.198;2023-03-03T08:52:55;5.00;99.90
16881;DHT22;8557;52.068;5.198;2023-03-03T08:55:22;5.00;99.90
16881;DHT22;8557;52.068;5.198;2023-03-03T08:57:48;5.10;99.90
16881;DHT22;8557;52.068;5.198;2023-03-03T09:00:17;5.30;99.90
16881;DHT22;8557;52.068;5.198;2023-03-03T09:02:44;5.30;99.90
16881;DHT22;8557;52.068;5.198;2023-03-03T09:05:11;5.50;99.90
16881;DHT22;8557;52.068;5.198;2023-03-03T09:07:40;5.60;99.90
16881;DHT22;8557;52.068;5.198;2023-03-03T09:10:09;5.40;99.90
16881;DHT22;8557;52.068;5.198;2023-03-03T09:15:19;6.30;99.90
16881;DHT22;8557;52.068;5.198;2023-03-03T09:17:46;6.10;99.90
16881;DHT22;8557;52.068;5.198;2023-03-03T09:20:24;6.00;99.90
16881;DHT22;8557;52.068;5.198;2023-03-03T09:22:54;6.00;99.90
16881;DHT22;8557;52.068;5.198;2023-03-03T09:25:30;6.00;99.90
16881;DHT22;8557;52.068;5.198;2023-03-03T09:27:57;6.10;99.90
16881;DHT22;8557;52.068;5.198;2023-03-03T09:30:37;6.00;99.90
16881;DHT22;8557;52.068;5.198;2023-03-03T09:33:24;6.10;99.90
16881;DHT22;8557;52.068;5.198;2023-03-03T09:35:53;6.10;99.90
16881;DHT22;8557;52.068;5.198;2023-03-03T09:38:27;6.10;99.90
16881;DHT22;8557;52.068;5.198;2023-03-03T09:41:14;6.20;99.90
16881;DHT22;8557;52.068;5.198;2023-03-03T09:43:49;6.30;99.90
16881;DHT22;8557;52.068;5.198;2023-03-03T09:46:25;6.30;99.90
16881;DHT22;8557;52.068;5.198;2023-03-03T09:49:04;6.30;99.90
16881;DHT22;8557;52.068;5.198;2023-03-03T09:51:51;6.40;99.90
16881;DHT22;8557;52.068;5.198;2023-03-03T09:54:35;6.40;99.90
16881;DHT22;8557;52.068;5.198;2023-03-03T09:57:13;6.50;99.90
16881;DHT22;8557;52.068;5.198;2023-03-03T09:59:59;6.60;99.90
16881;DHT22;8557;52.068;5.198;2023-03-03T10:02:41;6.80;99.90
16881;DHT22;8557;52.068;5.198;2023-03-03T10:05:33;6.90;99.90
16881;DHT22;8557;52.068;5.198;2023-03-03T10:08:18;6.90;99.90
16881;DHT22;8557;52.068;5.198;2023-03-03T10:10:55;7.20;99.90
16881;DHT22;8557;52.068;5.198;2023-03-03T10:13:38;7.20;99.90
16881;DHT22;8557;52.068;5.198;2023-03-03T10:16:16;7.20;99.90
16881;DHT22;8557;52.068;5.198;2023-03-03T10:18:48;7.50;99.90
16881;DHT22;8557;52.068;5.198;2023-03-03T10:21:24;7.40;99.90
16881;DHT22;8557;52.068;5.198;2023-03-03T10:29:04;7.90;99.90
16881;DHT22;8557;52.068;5.198;2023-03-03T10:31:42;7.90;99.90
16881;DHT22;8557;52.068;5.198;2023-03-03T10:34:23;7.70;99.90
16881;DHT22;8557;52.068;5.198;2023-03-03T10:36:55;7.90;99.90
16881;DHT22;8557;52.068;5.198;2023-03-03T10:39:45;7.90;99.90
16881;DHT22;8557;52.068;5.198;2023-03-03T10:42:35;8.10;99.90
16881;DHT22;8557;52.068;5.198;2023-03-03T10:45:29;8.40;99.90
16881;DHT22;8557;52.068;5.198;2023-03-03T10:48:22;8.50;99.90
16881;DHT22;8557;52.068;5.198;2023-03-03T10:50:57;8.70;99.90
16881;DHT22;8557;52.068;5.198;2023-03-03T10:53:31;8.70;99.90
16881;DHT22;8557;52.068;5.198;2023-03-03T10:56:25;8.70;99.90
16881;DHT22;8557;52.068;5.198;2023-03-03T10:59:06;8.80;99.90
16881;DHT22;8557;52.068;5.198;2023-03-03T11:01:44;8.70;99.90
16881;DHT22;8557;52.068;5.198;2023-03-03T11:04:35;8.70;99.90
16881;DHT22;8557;52.068;5.198;2023-03-03T11:07:08;8.90;99.90
16881;DHT22;8557;52.068;5.198;2023-03-03T11:09:47;9.00;99.90
16881;DHT22;8557;52.068;5.198;2023-03-03T11:12:27;9.10;99.90
16881;DHT22;8557;52.068;5.198;2023-03-03T11:17:39;9.70;99.90
16881;DHT22;8557;52.068;5.198;2023-03-03T11:20:22;9.60;99.90
16881;DHT22;8557;52.068;5.198;2023-03-03T11:22:57;9.80;99.90
16881;DHT22;8557;52.068;5.198;2023-03-03T11:25:30;10.00;99.90
16881;DHT22;8557;52.068;5.198;2023-03-03T11:28:05;10.00;58.90
16881;DHT22;8557;52.068;5.198;2023-03-03T11:30:53;9.90;34.60
16881;DHT22;8557;52.068;5.198;2023-03-03T11:33:27;9.70;85.30
16881;DHT22;8557;52.068;5.198;2023-03-03T11:36:08;9.40;94.10
16881;DHT22;8557;52.068;5.198;2023-03-03T11:38:47;9.30;96.60
16881;DHT22;8557;52.068;5.198;2023-03-03T11:41:26;9.30;97.40
16881;DHT22;8557;52.068;5.198;2023-03-03T11:43:58;9.60;99.90
16881;DHT22;8557;52.068;5.198;2023-03-03T11:46:34;10.00;77.40
16881;DHT22;8557;52.068;5.198;2023-03-03T11:49:05;10.10;1.00
16881;DHT22;8557;52.068;5.198;2023-03-03T11:51:43;10.40;22.70
16881;DHT22;8557;52.068;5.198;2023-03-03T11:54:18;10.80;2.30
16881;DHT22;8557;52.068;5.198;2023-03-03T11:56:47;10.90;1.00
16881;DHT22;8557;52.068;5.198;2023-03-03T12:02:19;10.80;1.00
16881;DHT22;8557;52.068;5.198;2023-03-03T12:04:51;10.60;1.00
16881;DHT22;8557;52.068;5.198;2023-03-03T12:07:28;10.20;1.00
16881;DHT22;8557;52.068;5.198;2023-03-03T12:10:07;10.00;1.00
16881;DHT22;8557;52.068;5.198;2023-03-03T12:12:42;9.90;1.00
16881;DHT22;8557;52.068;5.198;2023-03-03T12:15:21;9.80;1.00
16881;DHT22;8557;52.068;5.198;2023-03-03T12:18:18;9.80;1.00
16881;DHT22;8557;52.068;5.198;2023-03-03T12:20:58;10.20;1.00
16881;DHT22;8557;52.068;5.198;2023-03-03T12:23:45;10.80;1.00
16881;DHT22;8557;52.068;5.198;2023-03-03T12:26:19;11.20;1.00
16881;DHT22;8557;52.068;5.198;2023-03-03T12:28:51;11.50;1.00
16881;DHT22;8557;52.068;5.198;2023-03-03T12:31:26;11.50;1.00
16881;DHT22;8557;52.068;5.198;2023-03-03T12:33:58;11.10;1.00
16881;DHT22;8557;52.068;5.198;2023-03-03T12:36:49;10.90;1.00
16881;DHT22;8557;52.068;5.198;2023-03-03T12:39:28;10.60;1.00
16881;DHT22;8557;52.068;5.198;2023-03-03T12:42:01;10.50;1.00
16881;DHT22;8557;52.068;5.198;2023-03-03T12:44:37;10.40;1.00
16881;DHT22;8557;52.068;5.198;2023-03-03T12:47:14;10.40;1.00
16881;DHT22;8557;52.068;5.198;2023-03-03T12:49:54;10.80;1.00
16881;DHT22;8557;52.068;5.198;2023-03-03T12:52:31;11.30;1.00
16881;DHT22;8557;52.068;5.198;2023-03-03T12:55:10;11.90;1.00
16881;DHT22;8557;52.068;5.198;2023-03-03T12:57:46;12.90;1.00
16881;DHT22;8557;52.068;5.198;2023-03-03T13:00:27;13.20;99.90
16881;DHT22;8557;52.068;5.198;2023-03-03T13:03:02;12.90;99.90
16881;DHT22;8557;52.068;5.198;2023-03-03T13:08:27;12.20;25.50
16881;DHT22;8557;52.068;5.198;2023-03-03T13:11:05;12.50;98.20
16881;DHT22;8557;52.068;5.198;2023-03-03T13:13:39;19.30;1.00
16881;DHT22;8557;52.068;5.198;2023-03-03T13:16:13;23.20;26.30
16881;DHT22;8557;52.068;5.198;2023-03-03T13:18:50;24.80;99.90
16881;DHT22;8557;52.068;5.198;2023-03-03T13:21:22;26.20;99.90
16881;DHT22;8557;52.068;5.198;2023-03-03T13:23:56;21.10;1.00
16881;DHT22;8557;52.068;5.198;2023-03-03T13:26:34;20.50;38.20
16881;DHT22;8557;52.068;5.198;2023-03-03T13:29:18;17.70;1.00
16881;DHT22;8557;52.068;5.198;2023-03-03T13:31:48;15.90;1.00
16881;DHT22;8557;52.068;5.198;2023-03-03T13:34:25;14.60;1.00
16881;DHT22;8557;52.068;5.198;2023-03-03T13:37:10;13.50;1.00
16881;DHT22;8557;52.068;5.198;2023-03-03T13:40:05;12.50;99.90
16881;DHT22;8557;52.068;5.198;2023-03-03T13:43:18;11.80;1.00
16881;DHT22;8557;52.068;5.198;2023-03-03T13:51:59;11.40;99.90
16881;DHT22;8557;52.068;5.198;2023-03-03T13:58:08;11.80;1.00
16881;DHT22;8557;52.068;5.198;2023-03-03T14:00:52;17.30;1.00
16881;DHT22;8557;52.068;5.198;2023-03-03T14:03:49;16.10;99.90
16881;DHT22;8557;52.068;5.198;2023-03-03T14:06:21;14.80;99.90
16881;DHT22;8557;52.068;5.198;2023-03-03T14:09:15;13.20;99.90
16881;DHT22;8557;52.068;5.198;2023-03-03T14:11:48;12.20;1.00
16881;DHT22;8557;52.068;5.198;2023-03-03T14:14:29;11.80;99.90
16881;DHT22;8557;52.068;5.198;2023-03-03T14:17:02;11.50;1.00
16881;DHT22;8557;52.068;5.198;2023-03-03T14:19:34;11.20;26.40
16881;DHT22;8557;52.068;5.198;2023-03-03T14:22:14;11.10;1.00
16881;DHT22;8557;52.068;5.198;2023-03-03T14:25:10;11.30;1.00
16881;DHT22;8557;52.068;5.198;2023-03-03T14:28:00;12.10;1.00
16881;DHT22;8557;52.068;5.198;2023-03-03T14:30:33;11.10;1.00
16881;DHT22;8557;52.068;5.198;2023-03-03T14:33:14;10.70;1.00
16881;DHT22;8557;52.068;5.198;2023-03-03T14:36:09;10.40;99.90
16881;DHT22;8557;52.068;5.198;2023-03-03T14:38:47;10.40;99.90
16881;DHT22;8557;52.068;5.198;2023-03-03T14:41:21;10.20;99.90
16881;DHT22;8557;52.068;5.198;2023-03-03T14:44:23;10.00;99.90
16881;DHT22;8557;52.068;5.198;2023-03-03T14:47:19;9.70;99.90
16881;DHT22;8557;52.068;5.198;2023-03-03T14:50:25;9.60;99.90
16881;DHT22;8557;52.068;5.198;2023-03-03T14:53:13;9.80;99.90
16881;DHT22;8557;52.068;5.198;2023-03-03T15:01:43;11.60;99.90
16881;DHT22;8557;52.068;5.198;2023-03-03T15:05:05;11.80;99.90
16881;DHT22;8557;52.068;5.198;2023-03-03T15:07:54;11.40;99.90
16881;DHT22;8557;52.068;5.198;2023-03-03T15:10:51;11.20;99.90
16881;DHT22;8557;52.068;5.198;2023-03-03T15:13:37;10.80;99.90
16881;DHT22;8557;52.068;5.198;2023-03-03T15:16:33;10.10;99.90
16881;DHT22;8557;52.068;5.198;2023-03-03T15:22:46;9.70;99.90
16881;DHT22;8557;52.068;5.198;2023-03-03T15:25:27;9.70;99.90
16881;DHT22;8557;52.068;5.198;2023-03-03T15:28:10;9.50;99.90
16881;DHT22;8557;52.068;5.198;2023-03-03T15:30:47;9.30;99.90
16881;DHT22;8557;52.068;5.198;2023-03-03T15:33:23;9.30;99.90
16881;DHT22;8557;52.068;5.198;2023-03-03T15:36:14;9.20;99.90
16881;DHT22;8557;52.068;5.198;2023-03-03T15:38:54;9.20;99.90
16881;DHT22;8557;52.068;5.198;2023-03-03T15:41:37;9.30;99.90
16881;DHT22;8557;52.068;5.198;2023-03-03T15:44:21;9.20;99.90
16881;DHT22;8557;52.068;5.198;2023-03-03T15:47:24;9.10;99.90
16881;DHT22;8557;52.068;5.198;2023-03-03T15:50:21;9.20;99.90
16881;DHT22;8557;52.068;5.198;2023-03-03T15:53:23;9.10;99.90
16881;DHT22;8557;52.068;5.198;2023-03-03T15:56:03;9.00;99.90
16881;DHT22;8557;52.068;5.198;2023-03-03T16:02:08;9.00;99.90
16881;DHT22;8557;52.068;5.198;2023-03-03T16:05:07;9.00;99.90
16881;DHT22;8557;52.068;5.198;2023-03-03T16:08:22;9.00;99.90
16881;DHT22;8557;52.068;5.198;2023-03-03T16:11:50;9.00;99.90
16881;DHT22;8557;52.068;5.198;2023-03-03T16:16:17;9.00;99.90
16881;DHT22;8557;52.068;5.198;2023-03-03T16:18:32;9.10;99.90
16881;DHT22;8557;52.068;5.198;2023-03-03T16:22:04;8.90;99.90
16881;DHT22;8557;52.068;5.198;2023-03-03T16:34:59;8.30;99.90
16881;DHT22;8557;52.068;5.198;2023-03-03T16:37:56;8.30;99.90
16881;DHT22;8557;52.068;5.198;2023-03-03T16:40:48;8.20;99.90
16881;DHT22;8557;52.068;5.198;2023-03-03T16:43:28;8.00;99.90
16881;DHT22;8557;52.068;5.198;2023-03-03T16:46:00;7.90;99.90
16881;DHT22;8557;52.068;5.198;2023-03-03T16:48:38;7.70;99.90
16881;DHT22;8557;52.068;5.198;2023-03-03T16:51:38;7.60;99.90
16881;DHT22;8557;52.068;5.198;2023-03-03T16:54:29;7.60;99.90
16881;DHT22;8557;52.068;5.198;2023-03-03T16:57:06;7.50;99.90
16881;DHT22;8557;52.068;5.198;2023-03-03T16:59:46;7.40;99.90
16881;DHT22;8557;52.068;5.198;2023-03-03T17:05:16;7.40;99.90
16881;DHT22;8557;52.068;5.198;2023-03-03T17:08:09;7.40;99.90
16881;DHT22;8557;52.068;5.198;2023-03-03T17:10:41;7.40;99.90
16881;DHT22;8557;52.068;5.198;2023-03-03T17:13:27;7.40;99.90
16881;DHT22;8557;52.068;5.198;2023-03-03T17:16:07;7.30;99.90
16881;DHT22;8557;52.068;5.198;2023-03-03T17:18:54;7.40;99.90
16881;DHT22;8557;52.068;5.198;2023-03-03T17:21:31;7.40;99.90
16881;DHT22;8557;52.068;5.198;2023-03-03T17:24:11;7.40;99.90
16881;DHT22;8557;52.068;5.198;2023-03-03T17:26:52;7.50;99.90
16881;DHT22;8557;52.068;5.198;2023-03-03T17:32:45;7.40;99.90
16881;DHT22;8557;52.068;5.198;2023-03-03T17:35:24;7.50;99.90
16881;DHT22;8557;52.068;5.198;2023-03-03T17:38:03;7.50;99.90
16881;DHT22;8557;52.068;5.198;2023-03-03T17:40:44;7.60;99.90
16881;DHT22;8557;52.068;5.198;2023-03-03T17:43:15;7.70;99.90
16881;DHT22;8557;52.068;5.198;2023-03-03T17:45:50;7.60;99.90
16881;DHT22;8557;52.068;5.198;2023-03-03T17:58:51;7.50;99.90